sensor_id;sensor_type;location;lat;lon;timestamp;P1;durP1;ratioP1;P2;durP2;ratioP2
24739;SDS011;45234;48.148;17.128;2023-08-31T00:01:22;4.43;;;3.60;;
24739;SDS011;45234;48.148;17.128;2023-08-31T00:03:49;3.78;;;3.40;;
24739;SDS011;45234;48.148;17.128;2023-08-31T00:06:16;3.58;;;3.28;;
24739;SDS011;45234;48.148;17.128;2023-08-31T00:08:43;3.78;;;3.38;;
24739;SDS011;45234;48.148;17.128;2023-08-31T00:11:09;4.10;;;3.40;;
24739;SDS011;45234;48.148;17.128;2023-08-31T00:13:37;3.78;;;3.22;;
24739;SDS011;45234;48.148;17.128;2023-08-31T00:16:04;4.40;;;3.50;;
24739;SDS011;45234;48.148;17.128;2023-08-31T00:18:31;6.53;;;3.15;;
24739;SDS011;45234;48.148;17.128;2023-08-31T00:20:58;4.15;;;3.42;;
24739;SDS011;45234;48.148;17.128;2023-08-31T00:23:24;3.42;;;2.80;;
24739;SDS011;45234;48.148;17.128;2023-08-31T00:25:52;3.25;;;2.95;;
24739;SDS011;45234;48.148;17.128;2023-08-31T00:28:19;3.92;;;2.95;;
24739;SDS011;45234;48.148;17.128;2023-08-31T00:30:47;3.63;;;2.70;;
24739;SDS011;45234;48.148;17.128;2023-08-31T00:33:15;3.33;;;2.90;;
24739;SDS011;45234;48.148;17.128;2023-08-31T00:35:44;3.08;;;2.78;;
24739;SDS011;45234;48.148;17.128;2023-08-31T00:38:12;3.55;;;3.03;;
24739;SDS011;45234;48.148;17.128;2023-08-31T00:40:42;3.63;;;3.20;;
24739;SDS011;45234;48.148;17.128;2023-08-31T00:43:12;3.33;;;3.03;;
24739;SDS011;45234;48.148;17.128;2023-08-31T00:45:41;3.58;;;3.05;;
24739;SDS011;45234;48.148;17.128;2023-08-31T00:48:11;3.45;;;3.00;;
24739;SDS011;45234;48.148;17.128;2023-08-31T00:50:40;4.82;;;3.15;;
24739;SDS011;45234;48.148;17.128;2023-08-31T00:53:07;4.50;;;3.30;;
24739;SDS011;45234;48.148;17.128;2023-08-31T00:55:35;3.28;;;2.85;;
24739;SDS011;45234;48.148;17.128;2023-08-31T00:58:03;6.47;;;2.83;;
24739;SDS011;45234;48.148;17.128;2023-08-31T01:00:43;6.13;;;3.10;;
24739;SDS011;45234;48.148;17.128;2023-08-31T01:03:23;3.60;;;3.28;;
24739;SDS011;45234;48.148;17.128;2023-08-31T01:06:12;3.35;;;3.05;;
24739;SDS011;45234;48.148;17.128;2023-08-31T01:08:54;3.08;;;2.88;;
24739;SDS011;45234;48.148;17.128;2023-08-31T01:14:25;3.42;;;3.13;;
24739;SDS011;45234;48.148;17.128;2023-08-31T01:22:00;4.00;;;3.40;;
24739;SDS011;45234;48.148;17.128;2023-08-31T01:24:31;3.65;;;3.10;;
24739;SDS011;45234;48.148;17.128;2023-08-31T01:26:58;4.25;;;3.10;;
24739;SDS011;45234;48.148;17.128;2023-08-31T01:29:25;4.28;;;3.83;;
24739;SDS011;45234;48.148;17.128;2023-08-31T01:31:55;3.47;;;3.03;;
24739;SDS011;45234;48.148;17.128;2023-08-31T01:34:22;3.58;;;3.00;;
24739;SDS011;45234;48.148;17.128;2023-08-31T01:36:52;4.28;;;3.17;;
24739;SDS011;45234;48.148;17.128;2023-08-31T01:41:59;4.20;;;3.03;;
24739;SDS011;45234;48.148;17.128;2023-08-31T01:44:30;6.45;;;3.58;;
24739;SDS011;45234;48.148;17.128;2023-08-31T01:47:04;3.33;;;3.03;;
24739;SDS011;45234;48.148;17.128;2023-08-31T01:49:36;5.07;;;2.80;;
24739;SDS011;45234;48.148;17.128;2023-08-31T01:52:04;3.85;;;3.47;;
24739;SDS011;45234;48.148;17.128;2023-08-31T01:54:32;3.63;;;3.30;;
24739;SDS011;45234;48.148;17.128;2023-08-31T01:57:00;5.78;;;3.13;;
24739;SDS011;45234;48.148;17.128;2023-08-31T01:59:29;5.72;;;3.10;;
24739;SDS011;45234;48.148;17.128;2023-08-31T02:01:55;4.43;;;2.92;;
24739;SDS011;45234;48.148;17.128;2023-08-31T02:04:24;4.50;;;3.42;;
24739;SDS011;45234;48.148;17.128;2023-08-31T02:06:50;5.18;;;3.72;;
24739;SDS011;45234;48.148;17.128;2023-08-31T02:09:17;3.75;;;3.30;;
24739;SDS011;45234;48.148;17.128;2023-08-31T02:11:44;3.63;;;2.88;;
24739;SDS011;45234;48.148;17.128;2023-08-31T02:14:13;3.50;;;2.95;;
24739;SDS011;45234;48.148;17.128;2023-08-31T02:16:40;4.28;;;3.08;;
24739;SDS011;45234;48.148;17.128;2023-08-31T02:19:07;5.85;;;3.20;;
24739;SDS011;45234;48.148;17.128;2023-08-31T02:21:35;5.05;;;2.95;;
24739;SDS011;45234;48.148;17.128;2023-08-31T02:24:02;4.95;;;2.90;;
24739;SDS011;45234;48.148;17.128;2023-08-31T02:26:37;3.58;;;3.17;;
24739;SDS011;45234;48.148;17.128;2023-08-31T02:29:04;4.55;;;3.20;;
24739;SDS011;45234;48.148;17.128;2023-08-31T02:31:31;3.63;;;3.00;;
24739;SDS011;45234;48.148;17.128;2023-08-31T02:33:58;3.05;;;2.75;;
24739;SDS011;45234;48.148;17.128;2023-08-31T02:36:25;5.50;;;3.58;;
24739;SDS011;45234;48.148;17.128;2023-08-31T02:38:52;4.10;;;3.10;;
24739;SDS011;45234;48.148;17.128;2023-08-31T02:41:19;6.13;;;3.47;;
24739;SDS011;45234;48.148;17.128;2023-08-31T02:43:46;5.18;;;3.83;;
24739;SDS011;45234;48.148;17.128;2023-08-31T02:46:12;6.82;;;3.70;;
24739;SDS011;45234;48.148;17.128;2023-08-31T02:48:39;5.07;;;4.00;;
24739;SDS011;45234;48.148;17.128;2023-08-31T02:51:08;4.03;;;3.60;;
24739;SDS011;45234;48.148;17.128;2023-08-31T02:53:35;5.00;;;3.58;;
24739;SDS011;45234;48.148;17.128;2023-08-31T02:56:02;4.03;;;3.60;;
24739;SDS011;45234;48.148;17.128;2023-08-31T02:58:29;4.93;;;3.90;;
24739;SDS011;45234;48.148;17.128;2023-08-31T03:01:07;5.15;;;3.42;;
24739;SDS011;45234;48.148;17.128;2023-08-31T03:03:40;4.90;;;4.03;;
24739;SDS011;45234;48.148;17.128;2023-08-31T03:06:09;5.72;;;3.70;;
24739;SDS011;45234;48.148;17.128;2023-08-31T03:08:37;5.80;;;3.53;;
24739;SDS011;45234;48.148;17.128;2023-08-31T03:11:06;3.92;;;3.53;;
24739;SDS011;45234;48.148;17.128;2023-08-31T03:13:34;6.13;;;3.75;;
24739;SDS011;45234;48.148;17.128;2023-08-31T03:16:01;4.32;;;3.75;;
24739;SDS011;45234;48.148;17.128;2023-08-31T03:18:29;3.75;;;3.45;;
24739;SDS011;45234;48.148;17.128;2023-08-31T03:20:56;4.63;;;3.95;;
24739;SDS011;45234;48.148;17.128;2023-08-31T03:23:23;4.57;;;3.72;;
24739;SDS011;45234;48.148;17.128;2023-08-31T03:25:52;4.93;;;3.92;;
24739;SDS011;45234;48.148;17.128;2023-08-31T03:28:20;6.00;;;3.17;;
24739;SDS011;45234;48.148;17.128;2023-08-31T03:30:53;3.92;;;3.47;;
24739;SDS011;45234;48.148;17.128;2023-08-31T03:33:21;4.57;;;3.88;;
24739;SDS011;45234;48.148;17.128;2023-08-31T03:35:48;5.47;;;4.28;;
24739;SDS011;45234;48.148;17.128;2023-08-31T03:38:17;4.40;;;4.00;;
24739;SDS011;45234;48.148;17.128;2023-08-31T03:40:52;4.70;;;3.80;;
24739;SDS011;45234;48.148;17.128;2023-08-31T03:43:20;4.65;;;4.10;;
24739;SDS011;45234;48.148;17.128;2023-08-31T03:45:49;5.18;;;3.80;;
24739;SDS011;45234;48.148;17.128;2023-08-31T03:48:22;5.10;;;3.97;;
24739;SDS011;45234;48.148;17.128;2023-08-31T03:50:50;6.72;;;3.90;;
24739;SDS011;45234;48.148;17.128;2023-08-31T03:53:20;5.30;;;4.35;;
24739;SDS011;45234;48.148;17.128;2023-08-31T03:55:50;5.70;;;3.67;;
24739;SDS011;45234;48.148;17.128;2023-08-31T03:58:17;4.80;;;4.35;;
24739;SDS011;45234;48.148;17.128;2023-08-31T04:00:48;4.90;;;3.85;;
24739;SDS011;45234;48.148;17.128;2023-08-31T04:03:17;5.53;;;4.15;;
24739;SDS011;45234;48.148;17.128;2023-08-31T04:05:45;4.05;;;3.72;;
24739;SDS011;45234;48.148;17.128;2023-08-31T04:08:13;4.68;;;4.00;;
24739;SDS011;45234;48.148;17.128;2023-08-31T04:10:40;5.65;;;4.85;;
24739;SDS011;45234;48.148;17.128;2023-08-31T04:13:10;6.07;;;4.53;;
24739;SDS011;45234;48.148;17.128;2023-08-31T04:15:38;7.45;;;4.95;;
24739;SDS011;45234;48.148;17.128;2023-08-31T04:18:06;5.70;;;4.53;;
24739;SDS011;45234;48.148;17.128;2023-08-31T04:20:36;5.90;;;5.07;;
24739;SDS011;45234;48.148;17.128;2023-08-31T04:23:03;6.28;;;4.97;;
24739;SDS011;45234;48.148;17.128;2023-08-31T04:25:31;6.78;;;4.80;;
24739;SDS011;45234;48.148;17.128;2023-08-31T04:27:57;5.75;;;4.50;;
24739;SDS011;45234;48.148;17.128;2023-08-31T04:30:24;7.10;;;4.65;;
24739;SDS011;45234;48.148;17.128;2023-08-31T04:32:52;5.03;;;4.53;;
24739;SDS011;45234;48.148;17.128;2023-08-31T04:35:19;4.50;;;4.10;;
24739;SDS011;45234;48.148;17.128;2023-08-31T04:37:49;5.05;;;4.55;;
24739;SDS011;45234;48.148;17.128;2023-08-31T04:40:16;7.22;;;4.28;;
24739;SDS011;45234;48.148;17.128;2023-08-31T04:42:44;5.38;;;4.47;;
24739;SDS011;45234;48.148;17.128;2023-08-31T04:45:12;4.90;;;4.28;;
24739;SDS011;45234;48.148;17.128;2023-08-31T04:47:39;6.13;;;4.40;;
24739;SDS011;45234;48.148;17.128;2023-08-31T04:50:06;4.97;;;4.47;;
24739;SDS011;45234;48.148;17.128;2023-08-31T04:52:33;6.28;;;4.78;;
24739;SDS011;45234;48.148;17.128;2023-08-31T04:55:01;6.53;;;4.03;;
24739;SDS011;45234;48.148;17.128;2023-08-31T04:57:33;6.05;;;4.28;;
24739;SDS011;45234;48.148;17.128;2023-08-31T05:00:00;6.10;;;4.30;;
24739;SDS011;45234;48.148;17.128;2023-08-31T05:02:30;5.10;;;4.60;;
24739;SDS011;45234;48.148;17.128;2023-08-31T05:04:56;5.43;;;4.43;;
24739;SDS011;45234;48.148;17.128;2023-08-31T05:07:23;4.60;;;4.20;;
24739;SDS011;45234;48.148;17.128;2023-08-31T05:09:50;6.97;;;4.75;;
24739;SDS011;45234;48.148;17.128;2023-08-31T05:12:17;8.35;;;4.50;;
24739;SDS011;45234;48.148;17.128;2023-08-31T05:14:45;6.43;;;4.65;;
24739;SDS011;45234;48.148;17.128;2023-08-31T05:17:11;6.35;;;4.40;;
24739;SDS011;45234;48.148;17.128;2023-08-31T05:19:38;6.88;;;4.65;;
24739;SDS011;45234;48.148;17.128;2023-08-31T05:22:05;6.90;;;4.05;;
24739;SDS011;45234;48.148;17.128;2023-08-31T05:24:33;6.78;;;4.90;;
24739;SDS011;45234;48.148;17.128;2023-08-31T05:27:03;5.68;;;4.15;;
24739;SDS011;45234;48.148;17.128;2023-08-31T05:29:30;7.30;;;5.22;;
24739;SDS011;45234;48.148;17.128;2023-08-31T05:31:57;5.20;;;4.70;;
24739;SDS011;45234;48.148;17.128;2023-08-31T05:34:24;10.48;;;4.47;;
24739;SDS011;45234;48.148;17.128;2023-08-31T05:36:51;5.78;;;5.20;;
24739;SDS011;45234;48.148;17.128;2023-08-31T05:39:18;5.80;;;4.72;;
24739;SDS011;45234;48.148;17.128;2023-08-31T05:41:45;7.72;;;4.60;;
24739;SDS011;45234;48.148;17.128;2023-08-31T05:44:12;6.32;;;5.30;;
24739;SDS011;45234;48.148;17.128;2023-08-31T05:46:38;5.97;;;4.50;;
24739;SDS011;45234;48.148;17.128;2023-08-31T05:49:06;10.32;;;5.22;;
24739;SDS011;45234;48.148;17.128;2023-08-31T05:51:34;8.80;;;3.92;;
24739;SDS011;45234;48.148;17.128;2023-08-31T05:54:01;8.93;;;4.40;;
24739;SDS011;45234;48.148;17.128;2023-08-31T05:56:29;6.70;;;3.65;;
24739;SDS011;45234;48.148;17.128;2023-08-31T05:58:55;5.20;;;3.40;;
24739;SDS011;45234;48.148;17.128;2023-08-31T06:01:22;4.63;;;4.10;;
24739;SDS011;45234;48.148;17.128;2023-08-31T06:03:49;4.85;;;3.70;;
24739;SDS011;45234;48.148;17.128;2023-08-31T06:06:16;5.38;;;3.38;;
24739;SDS011;45234;48.148;17.128;2023-08-31T06:08:43;4.80;;;4.38;;
24739;SDS011;45234;48.148;17.128;2023-08-31T06:11:10;2.95;;;2.70;;
24739;SDS011;45234;48.148;17.128;2023-08-31T06:13:39;4.75;;;3.05;;
24739;SDS011;45234;48.148;17.128;2023-08-31T06:16:06;3.15;;;2.75;;
24739;SDS011;45234;48.148;17.128;2023-08-31T06:18:33;4.53;;;4.00;;
24739;SDS011;45234;48.148;17.128;2023-08-31T06:21:00;3.38;;;3.08;;
24739;SDS011;45234;48.148;17.128;2023-08-31T06:23:27;4.00;;;2.55;;
24739;SDS011;45234;48.148;17.128;2023-08-31T06:25:54;6.72;;;2.92;;
24739;SDS011;45234;48.148;17.128;2023-08-31T06:28:21;3.80;;;2.50;;
24739;SDS011;45234;48.148;17.128;2023-08-31T06:30:48;3.13;;;2.58;;
24739;SDS011;45234;48.148;17.128;2023-08-31T06:33:15;5.82;;;2.45;;
24739;SDS011;45234;48.148;17.128;2023-08-31T06:35:46;2.38;;;1.77;;
24739;SDS011;45234;48.148;17.128;2023-08-31T06:38:18;2.60;;;2.40;;
24739;SDS011;45234;48.148;17.128;2023-08-31T06:40:46;8.10;;;2.78;;
24739;SDS011;45234;48.148;17.128;2023-08-31T06:43:13;3.50;;;2.55;;
24739;SDS011;45234;48.148;17.128;2023-08-31T06:45:40;3.85;;;2.25;;
24739;SDS011;45234;48.148;17.128;2023-08-31T06:48:07;5.85;;;2.20;;
24739;SDS011;45234;48.148;17.128;2023-08-31T06:50:34;4.80;;;2.78;;
24739;SDS011;45234;48.148;17.128;2023-08-31T06:53:01;2.97;;;2.70;;
24739;SDS011;45234;48.148;17.128;2023-08-31T06:55:29;3.90;;;2.33;;
24739;SDS011;45234;48.148;17.128;2023-08-31T06:57:58;3.03;;;2.40;;
24739;SDS011;45234;48.148;17.128;2023-08-31T07:00:25;3.53;;;2.60;;
24739;SDS011;45234;48.148;17.128;2023-08-31T07:02:52;3.53;;;2.30;;
24739;SDS011;45234;48.148;17.128;2023-08-31T07:05:19;3.63;;;2.40;;
24739;SDS011;45234;48.148;17.128;2023-08-31T07:10:20;2.55;;;2.03;;
24739;SDS011;45234;48.148;17.128;2023-08-31T07:12:47;3.85;;;2.22;;
24739;SDS011;45234;48.148;17.128;2023-08-31T07:15:14;3.78;;;2.53;;
24739;SDS011;45234;48.148;17.128;2023-08-31T07:17:42;2.75;;;2.15;;
24739;SDS011;45234;48.148;17.128;2023-08-31T07:20:09;4.43;;;2.72;;
24739;SDS011;45234;48.148;17.128;2023-08-31T07:22:36;5.25;;;2.70;;
24739;SDS011;45234;48.148;17.128;2023-08-31T07:25:04;3.35;;;2.20;;
24739;SDS011;45234;48.148;17.128;2023-08-31T07:27:31;4.07;;;2.25;;
24739;SDS011;45234;48.148;17.128;2023-08-31T07:29:58;3.20;;;2.33;;
24739;SDS011;45234;48.148;17.128;2023-08-31T07:32:29;3.22;;;2.15;;
24739;SDS011;45234;48.148;17.128;2023-08-31T07:34:58;2.53;;;2.00;;
24739;SDS011;45234;48.148;17.128;2023-08-31T07:37:25;7.85;;;5.72;;
24739;SDS011;45234;48.148;17.128;2023-08-31T07:39:52;5.32;;;2.25;;
24739;SDS011;45234;48.148;17.128;2023-08-31T07:42:19;4.43;;;2.25;;
24739;SDS011;45234;48.148;17.128;2023-08-31T07:44:46;2.38;;;2.17;;
24739;SDS011;45234;48.148;17.128;2023-08-31T07:47:13;3.30;;;1.85;;
24739;SDS011;45234;48.148;17.128;2023-08-31T07:49:40;2.15;;;1.95;;
24739;SDS011;45234;48.148;17.128;2023-08-31T07:52:08;3.38;;;1.95;;
24739;SDS011;45234;48.148;17.128;2023-08-31T07:54:34;6.22;;;4.50;;
24739;SDS011;45234;48.148;17.128;2023-08-31T07:57:01;2.45;;;1.95;;
24739;SDS011;45234;48.148;17.128;2023-08-31T07:59:28;2.00;;;1.80;;
24739;SDS011;45234;48.148;17.128;2023-08-31T08:01:55;2.88;;;1.85;;
24739;SDS011;45234;48.148;17.128;2023-08-31T08:04:23;2.33;;;1.90;;
24739;SDS011;45234;48.148;17.128;2023-08-31T08:06:51;2.85;;;1.90;;
24739;SDS011;45234;48.148;17.128;2023-08-31T08:09:18;2.40;;;1.88;;
24739;SDS011;45234;48.148;17.128;2023-08-31T08:11:46;2.95;;;1.88;;
24739;SDS011;45234;48.148;17.128;2023-08-31T08:14:13;2.47;;;1.90;;
24739;SDS011;45234;48.148;17.128;2023-08-31T08:16:41;4.75;;;2.13;;
24739;SDS011;45234;48.148;17.128;2023-08-31T08:19:10;4.10;;;2.20;;
24739;SDS011;45234;48.148;17.128;2023-08-31T08:21:37;4.20;;;2.20;;
24739;SDS011;45234;48.148;17.128;2023-08-31T08:24:04;2.25;;;1.85;;
24739;SDS011;45234;48.148;17.128;2023-08-31T08:26:32;5.10;;;2.28;;
24739;SDS011;45234;48.148;17.128;2023-08-31T08:28:59;2.08;;;1.83;;
24739;SDS011;45234;48.148;17.128;2023-08-31T08:31:26;3.03;;;2.53;;
24739;SDS011;45234;48.148;17.128;2023-08-31T08:33:53;2.35;;;2.15;;
24739;SDS011;45234;48.148;17.128;2023-08-31T08:36:20;2.75;;;2.42;;
24739;SDS011;45234;48.148;17.128;2023-08-31T08:38:47;2.95;;;1.90;;
24739;SDS011;45234;48.148;17.128;2023-08-31T08:41:14;4.57;;;2.10;;
24739;SDS011;45234;48.148;17.128;2023-08-31T08:43:45;5.45;;;2.00;;
24739;SDS011;45234;48.148;17.128;2023-08-31T08:46:14;2.15;;;1.95;;
24739;SDS011;45234;48.148;17.128;2023-08-31T08:48:41;4.28;;;1.90;;
24739;SDS011;45234;48.148;17.128;2023-08-31T08:51:09;2.45;;;2.00;;
24739;SDS011;45234;48.148;17.128;2023-08-31T08:53:37;3.20;;;1.70;;
24739;SDS011;45234;48.148;17.128;2023-08-31T08:56:08;7.72;;;2.00;;
24739;SDS011;45234;48.148;17.128;2023-08-31T08:58:36;5.85;;;1.98;;
24739;SDS011;45234;48.148;17.128;2023-08-31T09:01:03;4.13;;;2.25;;
24739;SDS011;45234;48.148;17.128;2023-08-31T09:03:31;3.35;;;2.20;;
24739;SDS011;45234;48.148;17.128;2023-08-31T09:05:59;2.33;;;2.00;;
24739;SDS011;45234;48.148;17.128;2023-08-31T09:08:31;2.35;;;2.00;;
24739;SDS011;45234;48.148;17.128;2023-08-31T09:10:58;2.40;;;1.88;;
24739;SDS011;45234;48.148;17.128;2023-08-31T09:13:26;2.10;;;1.90;;
24739;SDS011;45234;48.148;17.128;2023-08-31T09:15:56;4.10;;;2.15;;
24739;SDS011;45234;48.148;17.128;2023-08-31T09:21:00;3.47;;;1.98;;
24739;SDS011;45234;48.148;17.128;2023-08-31T09:23:30;1.98;;;1.88;;
24739;SDS011;45234;48.148;17.128;2023-08-31T09:25:57;1.90;;;1.58;;
24739;SDS011;45234;48.148;17.128;2023-08-31T09:28:26;3.22;;;2.03;;
24739;SDS011;45234;48.148;17.128;2023-08-31T09:31:04;3.90;;;1.88;;
24739;SDS011;45234;48.148;17.128;2023-08-31T09:33:34;3.20;;;1.88;;
24739;SDS011;45234;48.148;17.128;2023-08-31T09:36:05;3.85;;;2.00;;
24739;SDS011;45234;48.148;17.128;2023-08-31T09:38:43;3.30;;;1.80;;
24739;SDS011;45234;48.148;17.128;2023-08-31T09:41:11;4.35;;;2.33;;
24739;SDS011;45234;48.148;17.128;2023-08-31T09:43:39;1.90;;;1.67;;
24739;SDS011;45234;48.148;17.128;2023-08-31T09:46:06;3.00;;;2.20;;
24739;SDS011;45234;48.148;17.128;2023-08-31T09:48:35;3.05;;;2.00;;
24739;SDS011;45234;48.148;17.128;2023-08-31T09:51:05;3.15;;;1.73;;
24739;SDS011;45234;48.148;17.128;2023-08-31T09:53:35;2.97;;;1.95;;
24739;SDS011;45234;48.148;17.128;2023-08-31T09:56:06;2.13;;;1.77;;
24739;SDS011;45234;48.148;17.128;2023-08-31T09:58:35;4.88;;;2.22;;
24739;SDS011;45234;48.148;17.128;2023-08-31T10:01:03;3.30;;;2.38;;
24739;SDS011;45234;48.148;17.128;2023-08-31T10:03:48;5.10;;;2.05;;
24739;SDS011;45234;48.148;17.128;2023-08-31T10:06:17;2.30;;;2.05;;
24739;SDS011;45234;48.148;17.128;2023-08-31T10:08:45;5.60;;;2.13;;
24739;SDS011;45234;48.148;17.128;2023-08-31T10:11:13;2.38;;;2.00;;
24739;SDS011;45234;48.148;17.128;2023-08-31T10:13:41;7.38;;;2.58;;
24739;SDS011;45234;48.148;17.128;2023-08-31T10:16:10;3.95;;;2.35;;
24739;SDS011;45234;48.148;17.128;2023-08-31T10:18:38;2.13;;;1.70;;
24739;SDS011;45234;48.148;17.128;2023-08-31T10:21:07;3.95;;;2.10;;
24739;SDS011;45234;48.148;17.128;2023-08-31T10:23:34;2.67;;;1.90;;
24739;SDS011;45234;48.148;17.128;2023-08-31T10:26:04;2.75;;;1.80;;
24739;SDS011;45234;48.148;17.128;2023-08-31T10:28:38;3.63;;;1.85;;
24739;SDS011;45234;48.148;17.128;2023-08-31T10:31:07;2.90;;;1.77;;
24739;SDS011;45234;48.148;17.128;2023-08-31T10:33:40;3.17;;;1.95;;
24739;SDS011;45234;48.148;17.128;2023-08-31T10:36:15;3.40;;;2.00;;
24739;SDS011;45234;48.148;17.128;2023-08-31T10:41:22;3.45;;;2.08;;
24739;SDS011;45234;48.148;17.128;2023-08-31T10:43:54;4.20;;;2.05;;
24739;SDS011;45234;48.148;17.128;2023-08-31T10:46:33;4.13;;;2.35;;
24739;SDS011;45234;48.148;17.128;2023-08-31T10:49:05;4.20;;;1.63;;
24739;SDS011;45234;48.148;17.128;2023-08-31T10:51:43;3.00;;;2.00;;
24739;SDS011;45234;48.148;17.128;2023-08-31T10:59:41;2.88;;;2.10;;
24739;SDS011;45234;48.148;17.128;2023-08-31T11:07:44;3.90;;;1.80;;
24739;SDS011;45234;48.148;17.128;2023-08-31T11:10:20;3.30;;;1.75;;
24739;SDS011;45234;48.148;17.128;2023-08-31T11:12:54;3.08;;;1.88;;
24739;SDS011;45234;48.148;17.128;2023-08-31T11:15:23;4.43;;;1.98;;
24739;SDS011;45234;48.148;17.128;2023-08-31T11:17:57;2.90;;;1.90;;
24739;SDS011;45234;48.148;17.128;2023-08-31T11:20:25;4.03;;;2.33;;
24739;SDS011;45234;48.148;17.128;2023-08-31T11:22:54;2.97;;;1.67;;
24739;SDS011;45234;48.148;17.128;2023-08-31T11:25:22;7.47;;;2.50;;
24739;SDS011;45234;48.148;17.128;2023-08-31T11:27:58;4.22;;;1.92;;
24739;SDS011;45234;48.148;17.128;2023-08-31T11:30:26;4.15;;;1.73;;
24739;SDS011;45234;48.148;17.128;2023-08-31T11:33:01;3.08;;;1.80;;
24739;SDS011;45234;48.148;17.128;2023-08-31T11:35:33;2.63;;;1.70;;
24739;SDS011;45234;48.148;17.128;2023-08-31T11:38:02;3.42;;;2.08;;
24739;SDS011;45234;48.148;17.128;2023-08-31T11:40:30;3.50;;;1.83;;
24739;SDS011;45234;48.148;17.128;2023-08-31T11:42:59;3.10;;;1.45;;
24739;SDS011;45234;48.148;17.128;2023-08-31T11:45:26;3.63;;;1.63;;
24739;SDS011;45234;48.148;17.128;2023-08-31T11:47:54;1.95;;;1.58;;
24739;SDS011;45234;48.148;17.128;2023-08-31T11:50:23;2.40;;;1.77;;
24739;SDS011;45234;48.148;17.128;2023-08-31T11:52:52;3.80;;;1.67;;
24739;SDS011;45234;48.148;17.128;2023-08-31T11:55:19;3.80;;;1.73;;
24739;SDS011;45234;48.148;17.128;2023-08-31T11:57:53;5.60;;;1.90;;
24739;SDS011;45234;48.148;17.128;2023-08-31T12:00:21;1.50;;;1.30;;
24739;SDS011;45234;48.148;17.128;2023-08-31T12:02:58;4.22;;;1.58;;
24739;SDS011;45234;48.148;17.128;2023-08-31T12:05:26;2.42;;;1.60;;
24739;SDS011;45234;48.148;17.128;2023-08-31T12:07:54;1.60;;;1.50;;
24739;SDS011;45234;48.148;17.128;2023-08-31T12:10:23;1.58;;;1.30;;
24739;SDS011;45234;48.148;17.128;2023-08-31T12:12:51;1.90;;;1.55;;
24739;SDS011;45234;48.148;17.128;2023-08-31T12:15:19;1.58;;;1.42;;
24739;SDS011;45234;48.148;17.128;2023-08-31T12:17:48;2.80;;;1.42;;
24739;SDS011;45234;48.148;17.128;2023-08-31T12:20:24;2.40;;;1.50;;
24739;SDS011;45234;48.148;17.128;2023-08-31T12:22:52;1.98;;;1.77;;
24739;SDS011;45234;48.148;17.128;2023-08-31T12:25:20;2.08;;;1.42;;
24739;SDS011;45234;48.148;17.128;2023-08-31T12:27:48;2.72;;;1.20;;
24739;SDS011;45234;48.148;17.128;2023-08-31T12:30:15;1.90;;;1.48;;
24739;SDS011;45234;48.148;17.128;2023-08-31T12:32:42;5.03;;;1.80;;
24739;SDS011;45234;48.148;17.128;2023-08-31T12:35:10;2.97;;;1.60;;
24739;SDS011;45234;48.148;17.128;2023-08-31T12:37:37;3.30;;;1.80;;
24739;SDS011;45234;48.148;17.128;2023-08-31T12:40:05;1.40;;;1.30;;
24739;SDS011;45234;48.148;17.128;2023-08-31T12:42:35;4.45;;;1.42;;
24739;SDS011;45234;48.148;17.128;2023-08-31T12:45:02;3.78;;;1.70;;
24739;SDS011;45234;48.148;17.128;2023-08-31T12:47:31;2.85;;;1.60;;
24739;SDS011;45234;48.148;17.128;2023-08-31T12:50:00;2.47;;;1.52;;
24739;SDS011;45234;48.148;17.128;2023-08-31T12:52:29;1.73;;;1.25;;
24739;SDS011;45234;48.148;17.128;2023-08-31T12:54:55;3.47;;;1.40;;
24739;SDS011;45234;48.148;17.128;2023-08-31T12:57:23;2.00;;;1.30;;
24739;SDS011;45234;48.148;17.128;2023-08-31T12:59:50;5.15;;;1.60;;
24739;SDS011;45234;48.148;17.128;2023-08-31T13:02:17;1.65;;;1.30;;
24739;SDS011;45234;48.148;17.128;2023-08-31T13:04:46;3.15;;;1.55;;
24739;SDS011;45234;48.148;17.128;2023-08-31T13:07:13;3.35;;;1.40;;
24739;SDS011;45234;48.148;17.128;2023-08-31T13:09:40;6.45;;;1.90;;
24739;SDS011;45234;48.148;17.128;2023-08-31T13:12:07;2.75;;;1.55;;
24739;SDS011;45234;48.148;17.128;2023-08-31T13:14:34;2.65;;;1.40;;
24739;SDS011;45234;48.148;17.128;2023-08-31T13:17:01;2.22;;;1.30;;
24739;SDS011;45234;48.148;17.128;2023-08-31T13:19:29;2.35;;;1.60;;
24739;SDS011;45234;48.148;17.128;2023-08-31T13:21:56;12.38;;;1.80;;
24739;SDS011;45234;48.148;17.128;2023-08-31T13:24:23;3.05;;;1.30;;
24739;SDS011;45234;48.148;17.128;2023-08-31T13:26:50;4.90;;;1.33;;
24739;SDS011;45234;48.148;17.128;2023-08-31T13:29:17;3.30;;;1.45;;
24739;SDS011;45234;48.148;17.128;2023-08-31T13:31:44;2.75;;;1.55;;
24739;SDS011;45234;48.148;17.128;2023-08-31T13:34:10;1.95;;;1.40;;
24739;SDS011;45234;48.148;17.128;2023-08-31T13:36:39;3.20;;;1.20;;
24739;SDS011;45234;48.148;17.128;2023-08-31T13:39:07;3.60;;;1.60;;
24739;SDS011;45234;48.148;17.128;2023-08-31T13:41:34;2.72;;;1.27;;
24739;SDS011;45234;48.148;17.128;2023-08-31T13:44:01;3.75;;;1.50;;
24739;SDS011;45234;48.148;17.128;2023-08-31T13:46:28;3.05;;;1.65;;
24739;SDS011;45234;48.148;17.128;2023-08-31T13:48:57;4.15;;;1.38;;
24739;SDS011;45234;48.148;17.128;2023-08-31T13:51:24;4.03;;;1.50;;
24739;SDS011;45234;48.148;17.128;2023-08-31T13:53:51;2.33;;;1.23;;
24739;SDS011;45234;48.148;17.128;2023-08-31T13:56:18;1.88;;;1.33;;
24739;SDS011;45234;48.148;17.128;2023-08-31T13:58:45;3.40;;;1.40;;
24739;SDS011;45234;48.148;17.128;2023-08-31T14:01:12;3.95;;;1.50;;
24739;SDS011;45234;48.148;17.128;2023-08-31T14:03:39;1.85;;;1.50;;
24739;SDS011;45234;48.148;17.128;2023-08-31T14:06:06;3.42;;;1.27;;
24739;SDS011;45234;48.148;17.128;2023-08-31T14:08:34;2.58;;;1.15;;
24739;SDS011;45234;48.148;17.128;2023-08-31T14:11:01;1.42;;;1.10;;
24739;SDS011;45234;48.148;17.128;2023-08-31T14:13:29;1.60;;;1.10;;
24739;SDS011;45234;48.148;17.128;2023-08-31T14:15:56;1.75;;;1.25;;
24739;SDS011;45234;48.148;17.128;2023-08-31T14:18:23;4.35;;;1.75;;
24739;SDS011;45234;48.148;17.128;2023-08-31T14:20:51;3.58;;;1.30;;
24739;SDS011;45234;48.148;17.128;2023-08-31T14:23:18;3.33;;;1.50;;
24739;SDS011;45234;48.148;17.128;2023-08-31T14:25:45;1.95;;;1.42;;
24739;SDS011;45234;48.148;17.128;2023-08-31T14:28:12;4.75;;;1.65;;
24739;SDS011;45234;48.148;17.128;2023-08-31T14:30:40;2.97;;;1.50;;
24739;SDS011;45234;48.148;17.128;2023-08-31T14:33:07;2.58;;;1.58;;
24739;SDS011;45234;48.148;17.128;2023-08-31T14:35:37;2.08;;;1.02;;
24739;SDS011;45234;48.148;17.128;2023-08-31T14:38:05;3.92;;;1.15;;
24739;SDS011;45234;48.148;17.128;2023-08-31T14:40:33;3.85;;;1.27;;
24739;SDS011;45234;48.148;17.128;2023-08-31T14:43:01;2.95;;;1.30;;
24739;SDS011;45234;48.148;17.128;2023-08-31T14:45:28;2.63;;;1.60;;
24739;SDS011;45234;48.148;17.128;2023-08-31T14:47:55;2.97;;;1.55;;
24739;SDS011;45234;48.148;17.128;2023-08-31T14:50:22;4.00;;;1.13;;
24739;SDS011;45234;48.148;17.128;2023-08-31T14:52:49;3.47;;;1.10;;
24739;SDS011;45234;48.148;17.128;2023-08-31T14:55:16;1.67;;;1.20;;
24739;SDS011;45234;48.148;17.128;2023-08-31T14:57:44;1.67;;;1.10;;
24739;SDS011;45234;48.148;17.128;2023-08-31T15:00:11;1.33;;;1.00;;
24739;SDS011;45234;48.148;17.128;2023-08-31T15:02:38;2.75;;;1.52;;
24739;SDS011;45234;48.148;17.128;2023-08-31T15:05:05;2.55;;;1.25;;
24739;SDS011;45234;48.148;17.128;2023-08-31T15:07:33;3.30;;;1.35;;
24739;SDS011;45234;48.148;17.128;2023-08-31T15:10:00;4.72;;;1.98;;